createdAt,value
2017-06-25T09:21:13.679Z,3640
2017-06-25T09:21:34.261Z,3580
2017-06-25T09:21:54.900Z,3556
2017-06-25T09:22:16.192Z,3520
2017-06-25T09:22:36.812Z,3612
2017-06-25T09:22:57.441Z,3564
2017-06-25T09:23:18.423Z,3556
2017-06-25T09:23:38.984Z,3504
2017-06-25T09:23:59.656Z,3168
2017-06-25T09:24:20.637Z,3484
2017-06-25T09:24:41.408Z,3484
2017-06-25T09:25:02.711Z,3484
2017-06-25T09:25:23.958Z,3528
2017-06-25T09:25:45.928Z,3516
2017-06-25T09:26:08.070Z,3504
2017-06-25T09:26:30.860Z,3620
2017-06-25T09:26:52.781Z,3628
2017-06-25T09:27:14.122Z,3664
2017-06-25T09:27:36.680Z,3672
2017-06-25T09:27:58.425Z,3704
2017-06-25T09:28:20.130Z,3672
2017-06-25T09:28:42.215Z,3620
2017-06-25T09:29:05.323Z,3704
2017-06-25T09:29:27.289Z,3648
2017-06-25T09:29:49.135Z,3592
2017-06-25T09:30:11.961Z,3584
2017-06-25T09:30:35.988Z,3536
2017-06-25T09:30:59.294Z,3488
2017-06-25T09:31:20.389Z,3464
2017-06-25T09:31:42.281Z,3380
2017-06-25T09:32:03.455Z,3304
2017-06-25T09:32:24.501Z,3244
2017-06-25T09:32:46.341Z,3196
2017-06-25T09:33:09.509Z,3180
2017-06-25T09:33:30.438Z,3128
2017-06-25T09:33:51.217Z,3144
2017-06-25T09:34:11.739Z,3072
2017-06-25T09:34:33.287Z,3040
2017-06-25T09:34:54.723Z,3004
2017-06-25T09:35:15.237Z,2928
2017-06-25T09:35:35.750Z,2904
2017-06-25T09:35:57.216Z,2900
2017-06-25T09:36:17.756Z,2876
2017-06-25T09:36:38.391Z,2856
2017-06-25T09:36:59.693Z,2836
2017-06-25T09:37:20.340Z,2832
2017-06-25T09:37:40.911Z,2832
2017-06-25T09:38:01.448Z,2836
2017-06-25T09:38:21.991Z,2812
2017-06-25T09:38:42.546Z,2752
2017-06-25T09:39:03.071Z,2716
2017-06-25T09:39:23.790Z,2744
2017-06-25T09:39:44.527Z,2732
2017-06-25T09:40:05.135Z,2728
2017-06-25T09:40:25.775Z,2792
2017-06-25T09:40:47.197Z,2640
2017-06-25T09:41:08.801Z,2640
2017-06-25T09:41:29.509Z,2684
2017-06-25T09:41:50.049Z,2700
2017-06-25T09:42:10.583Z,2704
2017-06-25T09:42:31.681Z,2700
2017-06-25T09:42:52.247Z,2708
2017-06-25T09:43:12.988Z,2716
2017-06-25T09:43:33.584Z,2788
2017-06-25T09:43:54.137Z,2756
2017-06-25T09:44:15.235Z,2772
2017-06-25T09:44:35.789Z,2812
2017-06-25T09:44:57.196Z,2784
2017-06-25T09:45:17.734Z,2804
2017-06-25T09:45:38.269Z,2832
2017-06-25T09:45:58.803Z,2796
2017-06-25T09:46:20.263Z,2812
2017-06-25T09:46:40.798Z,2812
2017-06-25T09:47:01.458Z,2864
2017-06-25T09:47:22.879Z,2868
2017-06-25T09:47:43.613Z,2836
2017-06-25T09:48:04.726Z,2840
2017-06-25T09:48:26.274Z,2824
2017-06-25T09:48:46.881Z,2844
2017-06-25T09:49:07.505Z,2848
2017-06-25T09:49:28.809Z,2884
2017-06-25T09:49:49.337Z,2908
2017-06-25T09:50:10.761Z,2948
2017-06-25T09:50:32.202Z,2936
2017-06-25T09:50:52.828Z,2952
2017-06-25T09:51:14.335Z,3020
2017-06-25T09:51:34.935Z,3020
2017-06-25T09:51:56.286Z,3008
2017-06-25T09:52:18.744Z,3024
2017-06-25T09:52:39.325Z,3000
2017-06-25T09:52:59.880Z,2968
2017-06-25T09:53:20.432Z,2968
2017-06-25T09:53:40.984Z,2944
2017-06-25T09:54:01.528Z,2936
2017-06-25T09:54:22.068Z,2932
2017-06-25T09:54:42.615Z,2884
2017-06-25T09:55:03.163Z,2864
2017-06-25T09:55:24.385Z,2848
2017-06-25T09:55:44.932Z,2856
2017-06-25T09:56:05.470Z,2888
2017-06-25T09:56:26.184Z,2880
2017-06-25T09:56:46.884Z,2948
2017-06-25T09:57:07.534Z,2920
2017-06-25T13:37:46.154Z,5668
2017-06-25T13:38:06.688Z,5988
2017-06-25T13:38:28.077Z,6216
2017-06-25T13:38:48.607Z,6068
2017-06-25T13:39:09.145Z,5912
2017-06-25T13:39:30.525Z,5996
2017-06-25T13:39:51.990Z,6044
2017-06-25T13:40:12.546Z,6196
2017-06-25T13:40:33.115Z,6324
2017-06-25T13:40:53.660Z,6332
2017-06-25T13:41:14.214Z,6332
2017-06-25T13:41:34.784Z,6200
2017-06-25T13:41:55.345Z,5940
2017-06-25T13:42:17.011Z,5528
2017-06-25T13:42:37.545Z,5108
2017-06-25T13:42:58.089Z,4320
2017-06-25T13:43:19.458Z,3900
2017-06-25T13:43:40.988Z,3588
2017-06-25T13:44:01.536Z,3816
2017-06-25T13:44:22.091Z,3780
2017-06-25T13:44:42.616Z,3764
2017-06-25T13:45:03.979Z,3512
2017-06-25T13:45:24.519Z,3420
2017-06-25T13:45:45.269Z,3340
2017-06-25T13:46:05.820Z,3492
2017-06-25T13:46:26.978Z,3748
2017-06-25T13:46:47.529Z,3996
2017-06-25T13:47:08.089Z,4092
2017-06-25T13:47:28.661Z,4152
2017-06-25T13:47:49.185Z,3724
2017-06-25T13:48:09.704Z,3824
2017-06-25T13:48:31.278Z,3916
2017-06-25T13:48:51.849Z,4108
2017-06-25T13:49:13.473Z,4344
2017-06-25T13:49:33.992Z,4636
2017-06-25T13:49:54.532Z,4924
2017-06-25T13:50:16.045Z,5144
2017-06-25T13:50:36.595Z,5336
2017-06-25T13:50:57.147Z,5536
2017-06-25T13:51:17.724Z,5660
2017-06-25T13:51:38.263Z,5676
2017-06-25T13:51:58.797Z,5708
2017-06-25T13:52:19.373Z,5812
2017-06-25T13:52:39.978Z,5960
2017-06-25T13:53:00.529Z,6100
2017-06-25T13:53:21.593Z,6148
2017-06-25T13:53:42.329Z,6324
2017-06-25T13:54:02.865Z,6732
2017-06-25T13:54:23.676Z,6960
2017-06-25T13:54:44.302Z,6932
2017-06-25T13:55:05.514Z,6380
2017-06-25T13:55:26.160Z,6748
2017-06-25T13:55:47.479Z,6264
2017-06-25T13:56:09.639Z,6232
2017-06-25T13:56:30.985Z,6300
2017-06-25T13:56:51.695Z,6360
2017-06-25T13:57:12.270Z,6204
2017-06-25T13:57:32.835Z,6004
2017-06-25T13:57:53.430Z,5808
2017-06-25T13:58:14.070Z,5708
2017-06-25T13:58:34.643Z,5604
2017-06-25T13:58:55.200Z,5508
2017-06-25T13:59:15.732Z,5464
2017-06-25T13:59:36.287Z,5552
2017-06-25T13:59:56.828Z,5696
2017-06-25T14:00:18.030Z,5856
2017-06-25T14:00:41.522Z,6064
2017-06-25T14:01:02.210Z,6172
2017-06-25T14:01:23.615Z,6648
2017-06-25T14:01:45.101Z,6904
2017-06-25T14:02:05.643Z,6900
2017-06-25T14:02:26.329Z,7172
2017-06-25T14:02:46.875Z,7132
2017-06-25T14:03:08.145Z,6916
2017-06-25T14:03:28.887Z,6972
2017-06-25T14:03:49.415Z,7024
2017-06-25T14:04:10.006Z,7088
2017-06-25T14:04:30.552Z,7144
2017-06-25T14:04:51.141Z,7108
2017-06-25T14:05:12.488Z,7108
2017-06-25T14:05:33.071Z,7172
2017-06-25T14:05:53.632Z,7128
2017-06-25T14:06:14.174Z,6976
2017-06-25T14:06:34.781Z,6888
2017-06-25T14:06:55.978Z,6864
2017-06-25T14:07:16.675Z,6912
2017-06-25T14:07:37.248Z,7012
2017-06-25T14:07:57.779Z,7096
2017-06-25T14:08:32.709Z,7420
2017-06-25T14:08:53.249Z,7588
2017-06-25T14:09:13.775Z,7660
2017-06-25T14:09:34.308Z,7732
2017-06-25T14:09:54.840Z,7760
2017-06-25T14:10:15.395Z,7728
2017-06-25T14:10:36.263Z,7680
2017-06-25T14:10:56.885Z,7580
2017-06-25T14:11:17.407Z,7372
2017-06-25T14:11:37.944Z,7292
2017-06-25T14:11:58.519Z,7176
2017-06-25T14:12:19.055Z,7028
2017-06-25T14:12:39.597Z,6864
2017-06-25T14:13:00.304Z,6676
2017-06-25T14:13:20.844Z,6540
2017-06-25T14:13:41.395Z,6404
2017-06-25T14:14:01.976Z,6216
2017-06-25T14:14:22.522Z,6080
2017-06-25T14:14:43.038Z,5872
2017-06-25T14:15:03.609Z,5608
2017-06-25T14:15:25.140Z,5396
2017-06-25T14:15:46.501Z,5276
2017-06-25T14:16:07.039Z,5188
2017-06-25T14:16:29.002Z,5164
2017-06-25T14:16:49.571Z,5140
2017-06-25T14:17:10.246Z,5176
2017-06-25T14:17:33.852Z,5256
2017-06-25T14:17:54.461Z,5340
2017-06-25T14:18:15.065Z,5368
2017-06-25T14:18:35.616Z,5408
2017-06-25T14:18:56.162Z,5496
2017-06-25T14:19:16.790Z,5644
2017-06-25T14:19:37.333Z,5752
2017-06-25T14:19:57.877Z,5788
2017-06-25T14:20:18.523Z,5756
2017-06-25T14:20:39.077Z,5796
2017-06-25T14:20:59.807Z,5840
2017-06-25T14:21:20.749Z,5928
2017-06-25T14:21:42.011Z,6012
2017-06-25T14:22:03.398Z,6168
2017-06-25T14:22:23.934Z,6276
2017-06-25T14:22:44.503Z,6328
2017-06-25T14:23:05.071Z,6472
2017-06-25T14:23:25.619Z,6648
2017-06-25T14:23:46.266Z,6764
2017-06-25T14:24:06.898Z,6728
2017-06-25T14:24:28.120Z,6668
2017-06-25T14:24:48.649Z,6712
2017-06-25T14:25:09.169Z,6732
2017-06-25T14:25:29.740Z,6724
2017-06-25T14:25:50.285Z,6668
2017-06-25T14:26:10.811Z,6604
2017-06-25T14:26:31.343Z,6520
2017-06-25T14:26:51.877Z,6508
2017-06-25T14:27:12.402Z,6512
2017-06-25T14:27:32.944Z,6536
2017-06-25T14:27:53.994Z,6604
2017-06-25T14:28:14.524Z,6608
2017-06-25T14:28:35.050Z,6652
2017-06-25T14:28:55.596Z,6652
2017-06-25T14:29:17.011Z,6584
2017-06-25T14:29:38.063Z,6528
2017-06-25T14:29:59.555Z,6512
2017-06-25T14:30:20.090Z,6600
2017-06-25T14:30:40.653Z,6656
2017-06-25T14:31:01.206Z,6636
2017-06-25T14:31:21.778Z,6684
2017-06-25T14:31:42.334Z,6740
2017-06-25T14:32:03.506Z,6736
2017-06-25T14:32:24.036Z,6696
2017-06-25T14:32:44.579Z,6664
2017-06-25T14:33:05.127Z,6696
2017-06-25T14:33:25.667Z,6732
2017-06-25T14:33:46.218Z,6800
2017-06-25T14:34:08.503Z,6864
2017-06-25T14:34:30.031Z,6928
2017-06-25T14:34:51.551Z,6976
2017-06-25T14:35:12.096Z,7008
2017-06-25T14:35:32.650Z,7008
2017-06-25T14:35:54.510Z,7040
2017-06-25T14:36:16.516Z,7060
2017-06-25T14:36:37.045Z,7080
2017-06-25T14:36:57.604Z,7096
2017-06-25T14:37:18.153Z,7088
2017-06-25T14:37:39.508Z,7072
2017-06-25T14:38:00.041Z,7088
2017-06-25T14:38:20.597Z,7116
2017-06-25T14:38:41.154Z,7108
2017-06-25T14:39:01.707Z,7168
2017-06-25T14:39:22.293Z,7280
2017-06-25T14:39:42.842Z,7284
2017-06-25T14:40:04.104Z,7604
2017-06-25T14:40:24.653Z,7328
2017-06-25T14:40:45.181Z,7376
2017-06-25T14:41:05.739Z,7560
2017-06-25T14:41:26.293Z,7388
2017-06-25T14:41:46.830Z,7480
2017-06-25T14:42:07.368Z,7124
2017-06-25T14:42:28.592Z,7004
2017-06-25T14:42:50.069Z,6744
2017-06-25T14:43:10.607Z,6640
2017-06-25T14:43:31.137Z,6588
2017-06-25T14:43:51.698Z,6620
2017-06-25T14:44:12.261Z,6640
2017-06-25T14:44:32.876Z,6680
2017-06-25T14:44:54.043Z,6764
2017-06-25T14:45:14.583Z,6840
2017-06-25T14:45:35.133Z,6792
2017-06-25T14:45:55.677Z,6644
2017-06-25T14:46:16.224Z,6448
2017-06-25T14:46:36.767Z,6300
2017-06-25T14:46:57.347Z,6084
2017-06-25T14:47:17.932Z,5952
2017-06-25T14:47:38.473Z,5964
2017-06-25T14:47:59.577Z,5920
2017-06-25T14:48:20.125Z,5828
2017-06-25T14:48:40.669Z,5712
2017-06-25T14:49:01.214Z,5572
2017-06-25T14:49:21.753Z,5340
2017-06-25T14:49:42.280Z,5272
2017-06-25T14:50:02.830Z,5364
2017-06-25T14:50:23.393Z,5448
2017-06-25T14:50:43.968Z,5468
2017-06-25T14:51:04.521Z,5592
2017-06-25T14:51:25.067Z,5764
2017-06-25T14:51:45.616Z,5976
2017-06-25T14:52:06.136Z,6008
2017-06-25T14:52:27.569Z,5952
2017-06-25T14:52:48.116Z,6000
2017-06-25T14:53:09.546Z,5992
2017-06-25T14:53:30.085Z,5760
2017-06-25T14:53:50.615Z,5636
2017-06-25T14:54:11.168Z,5584
2017-06-25T14:54:31.711Z,5756
2017-06-25T14:54:53.099Z,5616
2017-06-25T14:55:13.881Z,5748
2017-06-25T14:55:34.501Z,5996
2017-06-25T14:55:55.046Z,6000
2017-06-25T14:56:15.600Z,5984
2017-06-25T14:56:36.130Z,5952
2017-06-25T14:56:56.672Z,6056
2017-06-25T14:57:17.229Z,6164
2017-06-25T14:57:37.793Z,6136
2017-06-25T14:57:58.344Z,6056
2017-06-25T14:58:19.537Z,6012
2017-06-25T14:58:40.104Z,5972
2017-06-25T14:59:00.648Z,5976
2017-06-25T14:59:21.224Z,6128
2017-06-25T14:59:41.784Z,6084
2017-06-25T15:00:02.314Z,5904
2017-06-25T15:00:23.537Z,5952
2017-06-25T15:00:44.091Z,6028
2017-06-25T15:01:04.620Z,6020
2017-06-25T15:01:25.162Z,6040
2017-06-25T15:01:45.719Z,6396
2017-06-25T15:02:07.112Z,6488
2017-06-25T15:02:27.649Z,6632
2017-06-25T15:02:48.200Z,6276
2017-06-25T15:03:08.739Z,6304
2017-06-25T15:03:29.275Z,6428
2017-06-25T15:03:49.814Z,6544
2017-06-25T15:04:11.160Z,6556
2017-06-25T15:04:31.714Z,6416
2017-06-25T15:04:52.250Z,6424
2017-06-25T15:05:12.815Z,6464
2017-06-25T15:05:34.117Z,6580
2017-06-25T15:05:54.665Z,6748
2017-06-25T15:06:16.115Z,6504
2017-06-25T15:06:36.643Z,6320
2017-06-25T15:06:57.187Z,6216
2017-06-25T15:07:17.742Z,6148
2017-06-25T15:07:38.297Z,6076
2017-06-25T15:07:59.598Z,6048
2017-06-25T15:08:20.205Z,6080
2017-06-25T15:08:41.599Z,6100
2017-06-25T15:09:03.094Z,6164
2017-06-25T15:09:23.639Z,6076
2017-06-25T15:09:45.582Z,6072
2017-06-25T15:10:07.093Z,6056
2017-06-25T15:10:28.600Z,6224
2017-06-25T15:10:49.155Z,6052
2017-06-25T15:11:09.712Z,6072
2017-06-25T15:11:30.267Z,6036
2017-06-25T15:11:50.841Z,5996
2017-06-25T15:12:12.028Z,5904
2017-06-25T15:12:32.578Z,5868
2017-06-25T15:12:54.056Z,6092
2017-06-25T15:13:15.548Z,5736
2017-06-25T15:13:36.087Z,5404
2017-06-25T15:13:56.656Z,5216
2017-06-25T15:14:17.775Z,5004
2017-06-25T15:14:38.298Z,4944
2017-06-25T15:14:58.840Z,4844
2017-06-25T15:15:19.400Z,4668
2017-06-25T15:15:40.010Z,4468
2017-06-25T15:16:00.542Z,4284
2017-06-25T15:16:21.116Z,4080
2017-06-25T15:16:42.547Z,3912
2017-06-25T15:17:03.598Z,3752
2017-06-25T15:17:24.161Z,3544
2017-06-25T15:17:44.704Z,3316
2017-06-25T15:18:05.248Z,3080
2017-06-25T15:18:25.793Z,2860
2017-06-25T15:18:47.107Z,2700
2017-06-25T15:19:08.551Z,2596
2017-06-25T15:19:29.095Z,2540
2017-06-25T15:19:49.661Z,2504
2017-06-25T15:20:10.193Z,2508
2017-06-25T15:20:30.777Z,2536
2017-06-25T15:20:51.342Z,2572
2017-06-25T15:21:11.865Z,2576
2017-06-25T15:21:32.390Z,2596
2017-06-25T15:21:53.221Z,2628
2017-06-25T15:22:13.776Z,2668
2017-06-25T15:22:36.039Z,2704
2017-06-25T15:22:56.560Z,2708
2017-06-25T15:23:17.097Z,2776
2017-06-25T15:23:38.598Z,2864
2017-06-25T15:23:59.133Z,2924
2017-06-25T15:24:19.692Z,2940
2017-06-25T15:24:40.704Z,2992
2017-06-25T15:25:01.787Z,3108
2017-06-25T15:25:22.322Z,3224
2017-06-25T15:25:42.887Z,3396
2017-06-25T15:26:03.419Z,3560
2017-06-25T15:26:23.958Z,3620
2017-06-25T15:26:44.502Z,3676
2017-06-25T15:27:05.554Z,3812
2017-06-25T15:27:26.089Z,3936
2017-06-25T15:27:46.621Z,4072
2017-06-25T15:28:08.070Z,4340
2017-06-25T15:28:28.610Z,4468
2017-06-25T15:28:50.064Z,4632
2017-06-25T15:29:10.624Z,4864
2017-06-25T15:29:31.193Z,5028
2017-06-25T15:29:51.721Z,5168
2017-06-25T15:30:12.271Z,5224
2017-06-25T15:30:32.835Z,5204
2017-06-25T15:30:54.113Z,5168
2017-06-25T15:31:14.697Z,5232
2017-06-25T15:31:35.260Z,5284
2017-06-25T15:31:55.832Z,5316
2017-06-25T15:32:16.372Z,5368
2017-06-25T15:32:36.925Z,5592
2017-06-25T15:32:57.486Z,6172
2017-06-25T15:33:18.029Z,6016
2017-06-25T15:33:38.616Z,5976
2017-06-25T15:33:59.193Z,5960
2017-06-25T15:34:20.569Z,6076
2017-06-25T15:34:41.117Z,8456
2017-06-25T15:35:01.661Z,7020
2017-06-25T15:35:22.206Z,6564
2017-06-25T15:35:42.758Z,6788
2017-06-25T15:36:03.317Z,6644
2017-06-25T15:36:23.854Z,7032
2017-06-25T15:36:44.428Z,10120
2017-06-25T15:37:04.981Z,10244
2017-06-25T15:37:26.073Z,9604
2017-06-25T15:37:46.628Z,9780
2017-06-25T15:38:07.158Z,8516
2017-06-25T15:38:27.723Z,6236
2017-06-25T15:38:48.263Z,6140
2017-06-25T15:39:08.837Z,6268
2017-06-25T15:39:29.374Z,6428
2017-06-25T15:39:50.063Z,6120
2017-06-25T15:40:10.623Z,5892
2017-06-25T15:40:31.164Z,5908
2017-06-25T15:40:51.729Z,6720
2017-06-25T15:41:12.265Z,6708
2017-06-25T15:41:32.831Z,6672
2017-06-25T15:41:53.578Z,8512
2017-06-25T15:42:14.114Z,9828
2017-06-25T15:42:34.673Z,10060
2017-06-25T15:42:55.227Z,9604
2017-06-25T15:43:15.770Z,9736
2017-06-25T15:43:36.395Z,9688
2017-06-25T15:43:56.995Z,9512
2017-06-25T15:44:18.117Z,8576
2017-06-25T15:44:38.622Z,7640
2017-06-25T15:44:59.201Z,5964
2017-06-25T15:45:19.732Z,5100
2017-06-25T15:45:40.264Z,7188
2017-06-25T15:46:00.800Z,8720
2017-06-25T15:46:21.885Z,8156
2017-06-25T15:46:44.579Z,8164
2017-06-25T15:47:08.635Z,5812
2017-06-25T15:47:29.820Z,6572
2017-06-25T15:47:50.427Z,9060
2017-06-25T15:48:11.095Z,8764
2017-06-25T15:48:32.587Z,7964
2017-06-25T15:48:53.193Z,9116
2017-06-25T15:49:13.795Z,9100
2017-06-25T15:49:35.444Z,9168
2017-06-25T15:49:56.143Z,7668
2017-06-25T15:50:18.568Z,8416
2017-06-25T15:50:39.652Z,7376
2017-06-25T15:51:00.186Z,8120
2017-06-25T15:51:21.586Z,7452
2017-06-25T15:51:43.208Z,7144
2017-06-25T15:52:03.820Z,8068
2017-06-25T15:52:24.354Z,8764
2017-06-25T15:52:44.951Z,8616
2017-06-25T15:53:05.509Z,8480
2017-06-25T15:53:26.061Z,8808
2017-06-25T15:53:46.645Z,9048
2017-06-25T15:54:08.081Z,8476
2017-06-25T15:54:28.676Z,7780
2017-06-25T15:54:49.214Z,6456
2017-06-25T15:55:09.764Z,7316
2017-06-25T15:55:30.328Z,6252
2017-06-25T15:55:51.631Z,6940
2017-06-25T15:56:12.164Z,7184
2017-06-25T15:56:32.707Z,8480
2017-06-25T15:56:53.393Z,8264
2017-06-25T15:57:14.108Z,6932
2017-06-25T15:57:34.671Z,7544
2017-06-25T15:57:55.214Z,7416
2017-06-25T15:58:15.760Z,6824
2017-06-25T15:58:36.311Z,8148
2017-06-25T15:58:56.845Z,8056
2017-06-25T15:59:18.092Z,8016
2017-06-25T15:59:38.652Z,8168
2017-06-25T16:00:00.071Z,5916
2017-06-25T16:00:20.634Z,5564
2017-06-25T16:00:42.139Z,5420
2017-06-25T16:01:02.705Z,5356
2017-06-25T16:01:24.138Z,5544
2017-06-25T16:01:45.601Z,5900
2017-06-25T16:02:06.157Z,6352
2017-06-25T16:02:26.684Z,6652
2017-06-25T16:02:47.215Z,5320
2017-06-25T16:03:08.626Z,5192
2017-06-25T16:03:29.687Z,5144
2017-06-25T16:03:50.212Z,5040
2017-06-25T16:04:10.756Z,4972
2017-06-25T16:04:32.078Z,4868
2017-06-25T16:04:52.636Z,4736
2017-06-25T16:05:13.179Z,4652
2017-06-25T16:05:33.714Z,4696
2017-06-25T16:05:55.114Z,4692
2017-06-25T16:06:15.668Z,4732
2017-06-25T16:06:36.218Z,4744
2017-06-25T16:06:56.768Z,4788
2017-06-25T16:07:19.114Z,4752
2017-06-25T16:07:39.689Z,4848
2017-06-25T16:08:00.244Z,4944
2017-06-25T16:08:20.784Z,4996
2017-06-25T16:08:41.365Z,5024
2017-06-25T16:09:01.902Z,5024
2017-06-25T16:09:22.450Z,4992
2017-06-25T16:09:42.995Z,4860
2017-06-25T16:10:03.533Z,4648
2017-06-25T16:10:24.085Z,4604
2017-06-25T16:10:44.624Z,4536
2017-06-25T16:11:05.167Z,4444
2017-06-25T16:11:25.705Z,4400
2017-06-25T16:11:46.234Z,4384
2017-06-25T16:12:06.767Z,4320
2017-06-25T16:12:27.325Z,4172
2017-06-25T16:12:48.610Z,4092
2017-06-25T16:13:09.150Z,4048
2017-06-25T16:13:29.693Z,3992
2017-06-25T16:13:50.240Z,3916
2017-06-25T16:14:10.778Z,3852
2017-06-25T16:14:31.348Z,3804
2017-06-25T16:14:51.895Z,3708
2017-06-25T16:15:12.472Z,3644
2017-06-25T16:15:33.635Z,3592
2017-06-25T16:15:54.165Z,3532
2017-06-25T16:16:14.710Z,3456
2017-06-25T16:16:35.271Z,3384
2017-06-25T16:16:55.841Z,3324
2017-06-25T16:17:17.109Z,3284
2017-06-25T16:17:37.660Z,3252
2017-06-25T16:17:58.211Z,3212
2017-06-25T16:18:18.774Z,3180
2017-06-25T16:18:40.187Z,3096
2017-06-25T16:19:00.703Z,2964
2017-06-25T16:19:21.247Z,2920
2017-06-25T16:19:41.782Z,2820
2017-06-25T16:20:02.309Z,2740
2017-06-25T16:20:22.873Z,2724
2017-06-25T16:20:43.412Z,2684
2017-06-25T16:21:03.942Z,2660
2017-06-25T16:21:25.102Z,2620
2017-06-25T16:21:45.669Z,2572
2017-06-25T16:22:06.231Z,2560
2017-06-25T16:22:27.671Z,2592
2017-06-25T16:22:48.210Z,2624
2017-06-25T16:23:08.767Z,2644
2017-06-25T16:23:29.319Z,2676
2017-06-25T16:23:49.853Z,2708
2017-06-25T16:24:10.398Z,2712
2017-06-25T16:24:30.965Z,2708
2017-06-25T16:24:51.510Z,2692
2017-06-25T16:25:12.080Z,2652
2017-06-25T16:25:32.620Z,2588
2017-06-25T16:25:53.201Z,2512
2017-06-25T16:26:13.766Z,2444
2017-06-25T16:26:34.352Z,2372
2017-06-25T16:26:54.893Z,2292
2017-06-25T16:27:15.441Z,2212
2017-06-25T16:27:35.982Z,2124
2017-06-25T16:27:56.552Z,2044
2017-06-25T16:28:17.093Z,1980
2017-06-25T16:28:38.610Z,1928
2017-06-25T16:28:59.134Z,1868
2017-06-25T16:29:19.674Z,1824
2017-06-25T16:29:40.222Z,1792
2017-06-25T16:30:00.787Z,1776
2017-06-25T16:30:22.249Z,1764
2017-06-25T16:30:42.774Z,1744
2017-06-25T16:31:03.326Z,1724
2017-06-25T16:31:23.879Z,1700
2017-06-25T16:31:44.411Z,1664
2017-06-25T16:32:04.939Z,1616
2017-06-25T16:32:25.462Z,1572
2017-06-25T16:32:46.010Z,1520
2017-06-25T16:33:06.605Z,1456
2017-06-25T16:33:27.154Z,1404
2017-06-25T16:33:47.721Z,1356
2017-06-25T16:34:09.162Z,1296
2017-06-25T16:34:29.707Z,1228
2017-06-25T16:34:50.269Z,1168
2017-06-25T16:35:10.818Z,1100
2017-06-25T16:35:32.116Z,1024
2017-06-25T16:35:52.658Z,952
2017-06-25T16:36:13.227Z,892
2017-06-25T16:36:33.778Z,848
2017-06-25T16:36:55.651Z,800
2017-06-25T16:37:16.221Z,756
2017-06-25T16:37:36.759Z,724
2017-06-25T16:37:58.179Z,700
2017-06-25T16:38:18.705Z,680
2017-06-25T16:38:39.238Z,660
2017-06-25T16:38:59.763Z,644
2017-06-25T16:39:22.116Z,632
2017-06-25T16:39:42.673Z,620
2017-06-25T16:40:03.212Z,604
2017-06-25T16:40:23.736Z,580
2017-06-25T16:40:44.299Z,568
2017-06-25T16:41:04.853Z,552
2017-06-25T16:41:25.360Z,560
2017-06-25T16:41:46.671Z,548
2017-06-25T16:42:07.205Z,536
2017-06-25T16:42:27.729Z,524
2017-06-25T16:42:48.257Z,516
2017-06-25T16:43:09.786Z,508
2017-06-25T16:43:31.695Z,504
2017-06-25T16:43:53.121Z,488
2017-06-25T16:44:14.633Z,464
2017-06-25T16:44:35.766Z,452
2017-06-25T16:44:56.329Z,432
2017-06-25T16:45:16.868Z,420
2017-06-25T16:45:38.198Z,416
2017-06-25T16:46:00.238Z,416
2017-06-25T16:46:20.771Z,420
2017-06-25T16:46:42.167Z,432
2017-06-25T16:47:02.725Z,444
2017-06-25T16:47:23.285Z,456
2017-06-25T16:47:43.833Z,460
2017-06-25T16:48:04.380Z,460
2017-06-25T16:48:24.918Z,452
2017-06-25T16:48:45.479Z,456
2017-06-25T16:49:05.992Z,460
2017-06-25T16:49:27.155Z,472
2017-06-25T16:49:47.694Z,484
2017-06-25T16:50:09.126Z,500
2017-06-25T16:50:29.652Z,528
2017-06-25T16:50:50.176Z,552
2017-06-25T16:51:10.712Z,572
2017-06-25T16:51:31.235Z,608
2017-06-25T16:51:52.321Z,628
2017-06-25T16:52:12.861Z,632
2017-06-25T16:52:33.386Z,648
2017-06-25T16:52:53.952Z,652
2017-06-25T16:53:14.496Z,680
2017-06-25T16:53:35.027Z,712
2017-06-25T16:53:55.589Z,720
2017-06-25T16:54:16.143Z,720
2017-06-25T16:54:36.668Z,740
2017-06-25T16:54:57.203Z,764
2017-06-25T16:55:17.731Z,800
2017-06-25T16:55:38.254Z,832
2017-06-25T16:55:59.682Z,864
2017-06-25T16:56:20.193Z,900
2017-06-25T16:56:40.732Z,932
2017-06-25T16:57:01.285Z,956
2017-06-25T16:57:22.725Z,972
2017-06-25T16:57:43.260Z,980
2017-06-25T16:58:03.824Z,976
2017-06-25T16:58:24.345Z,968
2017-06-25T16:58:44.871Z,964
2017-06-25T16:59:05.825Z,944
2017-06-25T16:59:26.352Z,932
2017-06-25T16:59:47.646Z,928
2017-06-25T17:00:08.169Z,920
2017-06-25T17:00:28.696Z,924
2017-06-25T17:00:49.249Z,932
2017-06-25T17:01:09.774Z,948
2017-06-25T17:01:30.312Z,956
2017-06-25T17:01:50.852Z,964
2017-06-25T17:02:11.389Z,996
2017-06-25T17:02:31.966Z,1004
2017-06-25T17:02:52.512Z,1008
2017-06-25T17:03:13.634Z,1016
2017-06-25T17:03:34.163Z,1040
2017-06-25T17:03:54.694Z,1064
2017-06-25T17:04:16.196Z,1084
2017-06-25T17:04:36.780Z,1100
2017-06-25T17:04:57.315Z,1112
2017-06-25T17:05:17.883Z,1128
2017-06-25T17:05:38.418Z,1140
2017-06-25T17:05:58.950Z,1156
2017-06-25T17:06:20.175Z,1168
2017-06-25T17:06:40.722Z,1176
2017-06-25T17:07:01.269Z,1164
2017-06-25T17:07:22.665Z,1156
2017-06-25T17:07:43.275Z,1132
2017-06-25T17:08:03.804Z,1096
2017-06-25T17:08:24.337Z,1076
2017-06-25T17:08:44.877Z,1020
2017-06-25T17:09:05.403Z,960
2017-06-25T17:09:25.965Z,896
2017-06-25T17:09:46.510Z,808
2017-06-25T17:10:07.070Z,752
2017-06-25T17:10:27.623Z,708
2017-06-25T17:10:48.158Z,676
2017-06-25T17:11:08.689Z,632
2017-06-25T17:11:29.236Z,608
2017-06-25T17:11:49.761Z,592
2017-06-25T17:12:10.306Z,592
2017-06-25T17:12:30.844Z,620
2017-06-25T17:12:51.387Z,660
2017-06-25T17:13:11.921Z,684
2017-06-25T17:13:32.477Z,696
2017-06-25T17:13:53.012Z,708
2017-06-25T17:14:13.567Z,712
2017-06-25T17:14:34.108Z,708
2017-06-25T17:14:54.635Z,704
2017-06-25T17:15:15.162Z,704
2017-06-25T17:15:35.702Z,704
2017-06-25T17:15:57.157Z,700
2017-06-25T17:16:17.706Z,700
2017-06-25T17:16:38.262Z,704
2017-06-25T17:16:59.715Z,708
2017-06-25T17:17:20.245Z,720
2017-06-25T17:17:40.789Z,724
2017-06-25T17:18:01.326Z,732
2017-06-25T17:18:22.723Z,740
2017-06-25T17:18:43.242Z,748
2017-06-25T17:19:03.809Z,764
2017-06-25T17:19:24.361Z,780
2017-06-25T17:19:44.915Z,796
2017-06-25T17:20:05.467Z,816
2017-06-25T17:20:26.666Z,832
2017-06-25T17:20:48.674Z,836
2017-06-25T17:21:09.233Z,852
2017-06-25T17:21:29.749Z,876
2017-06-25T17:21:50.284Z,912
2017-06-25T17:22:10.838Z,936
2017-06-25T17:22:31.404Z,948
2017-06-25T17:22:52.750Z,956
2017-06-25T17:23:13.314Z,976
2017-06-25T17:23:34.653Z,1000
2017-06-25T17:23:55.212Z,1016
2017-06-25T17:24:15.769Z,1032
2017-06-25T17:24:36.372Z,1052
2017-06-25T17:24:56.912Z,1068
2017-06-25T17:25:17.459Z,1080
2017-06-25T17:25:38.012Z,1088
2017-06-25T17:25:58.560Z,1084
2017-06-25T17:26:19.698Z,1084
2017-06-25T17:26:40.240Z,1080
2017-06-25T17:27:00.780Z,1076
2017-06-25T17:27:21.315Z,1080
2017-06-25T17:27:42.811Z,1060
2017-06-25T17:28:03.356Z,1036
2017-06-25T17:28:23.896Z,1008
2017-06-25T17:28:44.439Z,984
2017-06-25T17:29:05.010Z,956
2017-06-25T17:29:25.558Z,936
2017-06-25T17:29:46.099Z,908
2017-06-25T17:30:06.650Z,876
2017-06-25T17:30:27.186Z,848
2017-06-25T17:30:47.734Z,816
2017-06-25T17:31:08.284Z,792
2017-06-25T17:31:28.813Z,764
2017-06-25T17:31:49.364Z,736
2017-06-25T17:32:10.760Z,716
2017-06-25T17:32:32.197Z,700
2017-06-25T17:32:52.751Z,684
2017-06-25T17:33:13.291Z,664
2017-06-25T17:33:33.824Z,652
2017-06-25T17:33:54.339Z,644
2017-06-25T17:34:15.657Z,640
2017-06-25T17:34:36.679Z,632
2017-06-25T17:34:57.718Z,624
2017-06-25T17:35:18.235Z,616
2017-06-25T17:35:39.711Z,612
2017-06-25T17:36:00.744Z,596
2017-06-25T17:36:21.282Z,584
2017-06-25T17:36:41.816Z,580
2017-06-25T17:37:02.374Z,572
2017-06-25T17:37:22.907Z,568
2017-06-25T17:37:43.423Z,564
2017-06-25T17:38:03.955Z,560
2017-06-25T17:38:24.518Z,556
2017-06-25T17:38:45.060Z,560
2017-06-25T17:39:05.617Z,564
2017-06-25T17:39:26.181Z,576
2017-06-25T17:39:47.236Z,588
2017-06-25T17:40:07.762Z,612